Time;durP1;ratioP1;P1;durP2;ratioP2;P2;SDS_P1;SDS_P2;PMS_P1;PMS_P2;Temp;Humidity;BMP_temperature;BMP_pressure;BME280_temperature;BME280_humidity;BME280_pressure;Samples;Min_cycle;Max_cycle;Signal;HPM_P1;HPM_P2
2024/01/15 00:01:01;;;;;;;12.43;8.07;;;;;;;-1.89;98.15;61806.50;5104794;28;20238;-77
2024/01/15 00:03:28;;;;;;;13.23;8.13;;;;;;;-1.88;98.57;61802.03;5104883;28;20200;-78
2024/01/15 00:05:55;;;;;;;15.27;9.68;;;;;;;-1.93;98.67;61799.91;5106429;28;20277;-76
2024/01/15 00:08:23;;;;;;;15.27;9.18;;;;;;;-1.97;99.08;61797.81;5106021;28;20207;-77
2024/01/15 00:10:50;;;;;;;18.35;10.07;;;;;;;-1.99;99.16;61796.28;5105829;28;20258;-79
2024/01/15 00:13:17;;;;;;;15.88;8.50;;;;;;;-1.81;97.68;61814.19;5104171;28;20200;-77
2024/01/15 00:15:44;;;;;;;16.08;9.15;;;;;;;-1.85;97.34;61805.09;5105754;28;20201;-77
2024/01/15 00:18:11;;;;;;;19.50;9.07;;;;;;;-1.86;97.51;61812.06;5109612;28;20211;-79
2024/01/15 00:20:38;;;;;;;15.65;7.63;;;;;;;-1.82;98.13;61816.16;5103125;28;20236;-79
2024/01/15 00:23:05;;;;;;;17.27;10.13;;;;;;;-1.91;98.39;61803.94;5105713;28;20219;-77
2024/01/15 00:25:33;;;;;;;22.15;9.20;;;;;;;-1.88;98.84;61807.53;5113388;28;20288;-77
2024/01/15 00:28:01;;;;;;;17.55;9.25;;;;;;;-1.90;99.26;61804.97;5104171;28;20265;-76
2024/01/15 00:30:27;;;;;;;13.57;8.52;;;;;;;-1.88;100.00;61809.53;5107373;28;20224;-77
2024/01/15 00:32:54;;;;;;;19.52;9.13;;;;;;;-2.02;100.00;61792.72;5104209;28;20208;-76
2024/01/15 00:35:21;;;;;;;14.70;8.32;;;;;;;-2.03;100.00;61789.19;5114216;28;20231;-77
2024/01/15 00:37:48;;;;;;;18.63;10.27;;;;;;;-2.05;100.00;61787.66;5103836;28;20199;-77
2024/01/15 00:40:16;;;;;;;23.35;9.85;;;;;;;-1.97;100.00;61797.81;5105015;28;20564;-78
2024/01/15 00:42:44;;;;;;;20.27;10.75;;;;;;;-1.98;100.00;61794.81;5102971;28;20533;-77
2024/01/15 00:45:11;;;;;;;19.50;10.32;;;;;;;-2.06;100.00;61789.13;5095415;28;20270;-76
2024/01/15 00:47:38;;;;;;;17.08;8.77;;;;;;;-2.00;100.00;61794.75;5107608;28;20221;-77
2024/01/15 00:50:06;;;;;;;15.68;9.23;;;;;;;-1.97;100.00;61797.81;5103367;28;20238;-76
2024/01/15 00:52:33;;;;;;;15.52;8.50;;;;;;;-1.97;100.00;61797.81;5103470;28;20253;-78
2024/01/15 00:55:00;;;;;;;16.85;8.95;;;;;;;-1.93;100.00;61802.41;5105181;28;20220;-77
2024/01/15 00:57:27;;;;;;;14.50;8.70;;;;;;;-1.84;100.00;61813.59;5098783;28;20214;-78
2024/01/15 00:59:56;;;;;;;18.02;8.35;;;;;;;-1.83;100.00;61815.13;5104084;28;20250;-78
2024/01/15 01:02:22;;;;;;;12.57;8.07;;;;;;;-1.81;100.00;61812.19;5109915;28;20254;-78
2024/01/15 01:04:49;;;;;;;12.73;7.78;;;;;;;-1.79;100.00;61813.72;5111533;28;20277;-77
2024/01/15 01:07:16;;;;;;;12.60;8.00;;;;;;;-1.79;100.00;61816.22;5104909;28;20323;-77
2024/01/15 01:09:43;;;;;;;19.08;9.48;;;;;;;-1.77;99.85;61818.78;5103185;28;20216;-77
2024/01/15 01:12:10;;;;;;;14.02;7.72;;;;;;;-1.83;100.00;61809.66;5099179;28;20206;-77
2024/01/15 01:14:37;;;;;;;10.50;7.32;;;;;;;-1.78;100.00;61817.78;5110556;28;20220;-76
2024/01/15 01:17:06;;;;;;;15.93;7.88;;;;;;;-1.79;100.00;61813.72;5103623;28;20200;-77
2024/01/15 01:19:33;;;;;;;11.98;7.57;;;;;;;-1.81;100.00;61809.19;5104539;28;20293;-77
2024/01/15 01:22:00;;;;;;;15.48;6.78;;;;;;;-1.80;100.00;61818.22;5116715;28;20236;-77
2024/01/15 01:24:27;;;;;;;14.95;7.80;;;;;;;-1.87;100.00;61808.03;5097014;28;20227;-78
2024/01/15 01:26:53;;;;;;;13.77;7.65;;;;;;;-1.92;100.00;61803.44;5103689;28;20275;-77
2024/01/15 01:29:20;;;;;;;11.38;6.80;;;;;;;-1.89;100.00;61806.00;5104731;28;20220;-77
2024/01/15 01:31:47;;;;;;;12.38;7.18;;;;;;;-1.82;100.00;61813.66;5103584;28;20390;-76
2024/01/15 01:34:16;;;;;;;10.30;7.25;;;;;;;-1.79;100.00;61818.72;5105339;28;20261;-78
2024/01/15 01:36:42;;;;;;;15.82;7.47;;;;;;;-1.87;100.00;61805.53;5108382;28;20192;-76
2024/01/15 01:39:09;;;;;;;12.55;6.40;;;;;;;-1.83;100.00;61812.13;5111831;28;20241;-79
2024/01/15 01:41:36;;;;;;;11.73;7.68;;;;;;;-1.89;100.00;61806.50;5102062;28;20246;-77
2024/01/15 01:44:04;;;;;;;11.82;7.68;;;;;;;-1.92;100.00;61808.44;5104579;28;20204;-78
2024/01/15 01:46:30;;;;;;;11.45;8.27;;;;;;;-1.98;100.00;61797.31;5104116;28;20220;-77
2024/01/15 01:48:57;;;;;;;12.77;6.93;;;;;;;-2.00;100.00;61797.75;5103924;28;20223;-76
2024/01/15 01:51:25;;;;;;;10.85;7.20;;;;;;;-1.94;100.00;61803.88;5101441;28;20224;-77
2024/01/15 01:53:52;;;;;;;9.95;6.35;;;;;;;-1.97;100.00;61795.31;5104687;28;20235;-77
2024/01/15 01:56:18;;;;;;;13.38;7.35;;;;;;;-1.97;100.00;61797.81;5102779;28;20196;-78
2024/01/15 01:58:45;;;;;;;9.93;6.10;;;;;;;-1.99;100.00;61798.78;5100499;28;20234;-76
2024/01/15 02:01:12;;;;;;;12.38;7.80;;;;;;;-2.06;100.00;61789.13;5101752;28;20492;-76
2024/01/15 02:03:39;;;;;;;14.73;7.97;;;;;;;-1.99;100.00;61796.28;5105507;28;20203;-77
2024/01/15 02:06:06;;;;;;;12.07;7.50;;;;;;;-2.01;100.00;61791.22;5111700;28;20224;-77
2024/01/15 02:08:35;;;;;;;15.25;7.82;;;;;;;-2.04;100.00;61788.69;5102241;28;20193;-77
2024/01/15 02:11:02;;;;;;;11.10;7.15;;;;;;;-2.06;100.00;61789.13;5102346;28;20250;-77
2024/01/15 02:13:29;;;;;;;13.68;7.95;;;;;;;-2.10;100.00;61779.53;5104412;28;20215;-77
2024/01/15 02:15:56;;;;;;;11.05;6.72;;;;;;;-2.08;100.00;61787.06;5104020;28;20254;-77
2024/01/15 02:18:23;;;;;;;18.42;7.05;;;;;;;-2.10;100.00;61784.50;5101353;28;20234;-77
2024/01/15 02:20:49;;;;;;;17.08;8.23;;;;;;;-2.16;100.00;61778.38;5114735;28;20288;-77
2024/01/15 02:23:18;;;;;;;13.70;7.15;;;;;;;-2.25;100.00;61771.66;5104228;28;20215;-78
2024/01/15 02:25:46;;;;;;;15.07;8.00;;;;;;;-2.26;100.00;61765.66;5103299;28;20235;-76
2024/01/15 02:28:13;;;;;;;13.23;7.53;;;;;;;-2.31;100.00;61763.56;5115302;28;20247;-79
2024/01/15 02:30:41;;;;;;;11.15;6.53;;;;;;;-2.34;100.00;61758.00;5104767;28;20216;-77
2024/01/15 02:33:08;;;;;;;13.73;7.15;;;;;;;-2.35;100.00;61757.47;5106943;28;20419;-78
2024/01/15 02:35:36;;;;;;;10.88;6.88;;;;;;;-2.38;100.00;61756.41;5102836;28;20247;-77
2024/01/15 02:38:03;;;;;;;11.25;6.90;;;;;;;-2.41;100.00;61756.34;5104350;28;20288;-78
2024/01/15 02:40:32;;;;;;;12.55;7.13;;;;;;;-2.41;100.00;61753.34;5107483;28;20223;-78
2024/01/15 02:42:58;;;;;;;13.80;7.95;;;;;;;-2.39;100.00;61755.91;5117513;28;20196;-77
2024/01/15 02:45:25;;;;;;;14.68;9.05;;;;;;;-2.40;100.00;61754.88;5102125;28;20261;-77
2024/01/15 02:47:52;;;;;;;19.00;7.97;;;;;;;-2.42;100.00;61752.81;5109525;28;20211;-77
2024/01/15 02:50:19;;;;;;;14.15;8.75;;;;;;;-2.36;100.00;61761.44;5108019;28;20510;-77
2024/01/15 02:52:46;;;;;;;15.13;8.48;;;;;;;-2.57;100.00;61737.00;5109786;28;20216;-76
2024/01/15 02:55:13;;;;;;;18.17;8.15;;;;;;;-2.26;100.00;61768.66;5118458;28;20219;-77
2024/01/15 02:57:42;;;;;;;13.80;7.55;;;;;;;-2.20;100.00;61779.28;5098886;28;20200;-78
2024/01/15 03:00:10;;;;;;;24.13;8.27;;;;;;;-2.13;100.00;61778.97;5107370;28;20277;-78
2024/01/15 03:02:39;;;;;;;18.02;8.80;;;;;;;-2.07;100.00;61785.09;5105817;28;20463;-78
2024/01/15 03:05:06;;;;;;;16.92;7.60;;;;;;;-1.99;100.00;61795.78;5112943;28;20224;-77
2024/01/15 03:07:33;;;;;;;12.63;8.15;;;;;;;-1.96;100.00;61798.84;5106085;28;20235;-77
2024/01/15 03:10:00;;;;;;;17.98;8.55;;;;;;;-1.88;100.00;61804.53;5108094;28;20219;-78
2024/01/15 03:12:27;;;;;;;15.40;8.48;;;;;;;-1.79;100.00;61813.72;5108144;28;20264;-78
2024/01/15 03:14:56;;;;;;;15.07;8.02;;;;;;;-1.78;100.00;61817.78;5118084;28;20253;-77
2024/01/15 03:17:23;;;;;;;15.68;8.07;;;;;;;-1.61;100.00;61832.66;5119836;28;20418;-78
2024/01/15 03:19:50;;;;;;;13.07;7.95;;;;;;;-1.67;100.00;61824.03;5107218;28;20235;-77
2024/01/15 03:22:17;;;;;;;16.40;8.50;;;;;;;-1.62;100.00;61831.63;5109152;28;20235;-79
2024/01/15 03:24:44;;;;;;;16.83;8.73;;;;;;;-1.57;100.00;61838.75;5113952;28;20246;-77
2024/01/15 03:27:11;;;;;;;13.77;7.75;;;;;;;-1.49;100.00;61844.94;5106193;28;20217;-77
2024/01/15 03:29:38;;;;;;;12.43;7.43;;;;;;;-1.41;100.00;61857.59;5104761;28;20265;-77
2024/01/15 03:32:07;;;;;;;13.27;6.53;;;;;;;-1.37;100.00;61859.72;5116879;28;20202;-77
2024/01/15 03:34:34;;;;;;;13.27;6.63;;;;;;;-1.39;100.00;61854.66;5094644;28;20220;-78
2024/01/15 03:37:01;;;;;;;9.25;4.97;;;;;;;-1.36;100.00;61858.22;5106832;28;20271;-77
2024/01/15 03:39:28;;;;;;;7.38;5.45;;;;;;;-1.41;100.00;61853.13;5111477;28;20232;-78
2024/01/15 03:41:54;;;;;;;10.07;6.43;;;;;;;-1.38;100.00;61856.19;5116841;28;20285;-78
2024/01/15 03:44:21;;;;;;;9.98;6.35;;;;;;;-1.38;100.00;61853.19;5103690;28;20228;-77
2024/01/15 03:46:48;;;;;;;19.23;7.63;;;;;;;-1.36;100.00;61862.72;5106155;28;20241;-76
2024/01/15 03:49:16;;;;;;;7.00;5.63;;;;;;;-1.42;100.00;61854.59;5103921;28;20215;-77
2024/01/15 03:51:43;;;;;;;10.13;6.13;;;;;;;-1.46;100.00;61854.97;5104606;28;20241;-76
2024/01/15 03:54:10;;;;;;;15.27;6.88;;;;;;;-1.43;100.00;61850.56;5104118;28;20249;-77
2024/01/15 03:56:37;;;;;;;11.32;6.63;;;;;;;-1.46;100.00;61847.50;5104439;28;20407;-77
2024/01/15 03:59:04;;;;;;;14.77;7.07;;;;;;;-1.53;100.00;61845.84;5110278;28;20421;-76
2024/01/15 04:01:31;;;;;;;8.98;6.53;;;;;;;-1.48;100.00;61848.44;5113450;28;20250;-79
2024/01/15 04:03:58;;;;;;;14.88;7.95;;;;;;;-1.47;100.00;61851.47;5105547;28;20208;-78
2024/01/15 04:06:26;;;;;;;19.85;8.40;;;;;;;-1.50;100.00;61841.41;5103590;28;20196;-77
2024/01/15 04:08:53;;;;;;;15.20;8.45;;;;;;;-1.49;100.00;61846.91;5108521;28;20204;-77
2024/01/15 04:11:20;;;;;;;23.42;9.45;;;;;;;-1.53;100.00;61842.81;5093328;28;20204;-77
2024/01/15 04:13:47;;;;;;;19.77;10.13;;;;;;;-1.59;100.00;61836.69;5112665;28;20403;-76
2024/01/15 04:16:14;;;;;;;14.93;8.88;;;;;;;-1.55;100.00;61835.78;5103854;28;20224;-77
2024/01/15 04:18:41;;;;;;;18.77;8.02;;;;;;;-1.60;100.00;61833.69;5103287;28;20192;-77
2024/01/15 04:21:08;;;;;;;11.52;7.15;;;;;;;-1.57;100.00;61838.75;5098006;28;20266;-78
2024/01/15 04:23:36;;;;;;;16.15;7.40;;;;;;;-1.59;100.00;61834.19;5112631;28;20356;-77
2024/01/15 04:26:03;;;;;;;13.75;6.97;;;;;;;-1.70;100.00;61827.91;5099908;28;20218;-77
2024/01/15 04:28:30;;;;;;;13.95;8.30;;;;;;;-1.72;100.00;61821.41;5104392;28;20218;-78
2024/01/15 04:30:57;;;;;;;13.43;7.07;;;;;;;-1.65;100.00;61833.56;5104585;28;20284;-77
2024/01/15 04:33:24;;;;;;;10.85;6.47;;;;;;;-1.64;100.00;61827.09;5102562;28;20204;-77
2024/01/15 04:35:51;;;;;;;15.65;7.82;;;;;;;-1.69;100.00;61824.47;5103275;28;20239;-78
2024/01/15 04:38:18;;;;;;;11.18;6.95;;;;;;;-1.68;100.00;61823.00;5106103;28;20236;-78
2024/01/15 04:40:46;;;;;;;11.85;6.85;;;;;;;-1.72;100.00;61818.91;5106600;28;20560;-78
2024/01/15 04:43:13;;;;;;;8.77;6.53;;;;;;;-1.76;100.00;61814.31;5117155;28;20295;-78
2024/01/15 04:45:40;;;;;;;11.00;6.00;;;;;;;-1.77;100.00;61816.28;5116844;27;20239;-78
2024/01/15 04:48:07;;;;;;;14.77;6.70;;;;;;;-1.83;100.00;61812.63;5105607;28;20215;-77
2024/01/15 04:50:34;;;;;;;14.00;6.25;;;;;;;-1.83;100.00;61812.13;5103688;28;20212;-77
2024/01/15 04:53:01;;;;;;;13.27;7.00;;;;;;;-1.79;100.00;61813.72;5110715;28;20195;-78
2024/01/15 04:55:28;;;;;;;11.07;6.53;;;;;;;-1.78;100.00;61812.25;5104101;28;20212;-78
2024/01/15 04:57:56;;;;;;;10.65;6.53;;;;;;;-1.69;100.00;61824.47;5102777;28;20204;-77
2024/01/15 05:00:23;;;;;;;12.15;6.72;;;;;;;-1.69;100.00;61826.97;5114021;28;20219;-77
2024/01/15 05:02:50;;;;;;;10.43;6.30;;;;;;;-1.61;100.00;61834.63;5105051;28;20453;-78
2024/01/15 05:05:17;;;;;;;12.88;7.07;;;;;;;-1.79;100.00;61816.22;5108487;28;20302;-78
2024/01/15 05:07:44;;;;;;;13.65;6.40;;;;;;;-1.78;100.00;61820.25;5100406;28;20193;-77
2024/01/15 05:10:11;;;;;;;16.17;7.82;;;;;;;-1.75;100.00;61817.81;5103874;28;20220;-79
2024/01/15 05:12:38;;;;;;;15.65;8.25;;;;;;;-1.75;100.00;61817.81;5103377;28;20196;-77
2024/01/15 05:15:07;;;;;;;12.18;7.47;;;;;;;-1.78;100.00;61815.28;5104344;28;20298;-77
2024/01/15 05:17:34;;;;;;;14.20;7.35;;;;;;;-1.77;100.00;61818.78;5105828;28;20245;-76
2024/01/15 05:20:01;;;;;;;10.60;6.03;;;;;;;-1.89;100.00;61806.00;5106890;28;21228;-76
2024/01/15 05:22:28;;;;;;;11.15;6.38;;;;;;;-1.94;100.00;61801.41;5102330;28;20228;-77
2024/01/15 05:24:55;;;;;;;13.88;6.97;;;;;;;-1.99;100.00;61798.25;5103678;28;20232;-77
2024/01/15 05:27:22;;;;;;;11.95;6.78;;;;;;;-1.95;100.00;61797.38;5109919;28;20246;-77
2024/01/15 05:29:49;;;;;;;12.23;7.35;;;;;;;-1.87;100.00;61803.56;5109373;28;20251;-77
2024/01/15 05:32:17;;;;;;;13.07;6.45;;;;;;;-1.90;100.00;61805.50;5104368;28;20199;-77
2024/01/15 05:34:44;;;;;;;11.02;6.35;;;;;;;-1.83;100.00;61809.66;5101522;28;20212;-77
2024/01/15 05:37:11;;;;;;;10.38;6.28;;;;;;;-1.80;100.00;61812.72;5112496;28;20237;-77
2024/01/15 05:39:38;;;;;;;12.60;7.70;;;;;;;-1.77;100.00;61816.28;5103568;28;20530;-79
2024/01/15 05:42:05;;;;;;;21.23;8.93;;;;;;;-1.72;100.00;61823.91;5108119;28;20269;-77
2024/01/15 05:44:32;;;;;;;14.00;8.20;;;;;;;-1.66;100.00;61827.53;5095156;28;20411;-78
2024/01/15 05:46:59;;;;;;;14.30;9.40;;;;;;;-1.67;100.00;61828.50;5105675;28;20493;-77
2024/01/15 05:49:28;;;;;;;24.23;10.95;;;;;;;-1.59;100.00;61831.69;5105551;28;20419;-77
2024/01/15 05:51:55;;;;;;;18.08;8.85;;;;;;;-1.59;100.00;61837.19;5098798;28;20216;-78
2024/01/15 05:54:21;;;;;;;14.55;9.40;;;;;;;-1.59;100.00;61834.69;5103488;28;20271;-78
2024/01/15 05:56:48;;;;;;;27.33;11.45;;;;;;;-1.61;100.00;61835.16;5095403;28;20421;-78
2024/01/15 05:59:15;;;;;;;20.52;9.88;;;;;;;-1.58;100.00;61838.22;5107821;28;20224;-78
2024/01/15 06:01:42;;;;;;;21.48;9.70;;;;;;;-1.57;100.00;61836.25;5106906;28;20196;-79
2024/01/15 06:04:09;;;;;;;15.13;9.32;;;;;;;-1.63;100.00;61830.09;5105702;28;20202;-79
2024/01/15 06:06:37;;;;;;;16.15;8.25;;;;;;;-1.67;100.00;61836.50;5107329;28;20211;-77
2024/01/15 06:09:06;;;;;;;15.77;7.43;;;;;;;-1.67;100.00;61826.50;5110100;28;20225;-80
2024/01/15 06:11:33;;;;;;;11.75;6.65;;;;;;;-1.61;100.00;61832.66;5110264;28;20203;-78
2024/01/15 06:14:00;;;;;;;12.15;6.60;;;;;;;-1.57;100.00;61836.75;5112150;28;20211;-79
2024/01/15 06:16:27;;;;;;;16.65;8.07;;;;;;;-1.56;100.00;61837.78;5109229;28;20204;-79
2024/01/15 06:18:54;;;;;;;9.93;6.88;;;;;;;-1.48;100.00;61848.44;5098784;28;20253;-77
2024/01/15 06:21:21;;;;;;;19.88;9.60;;;;;;;-1.34;100.00;61862.25;5102615;28;20200;-79
2024/01/15 06:23:49;;;;;;;11.30;6.05;;;;;;;-1.29;100.00;61869.88;5100609;28;20504;-79
2024/01/15 06:26:16;;;;;;;12.20;6.93;;;;;;;-1.16;100.00;61880.69;5113837;28;20370;-78
2024/01/15 06:28:43;;;;;;;12.20;6.25;;;;;;;-1.18;100.00;61876.16;5109848;28;20203;-79
2024/01/15 06:31:10;;;;;;;13.98;6.57;;;;;;;-1.11;100.00;61885.81;5109309;28;20269;-78
2024/01/15 06:33:36;;;;;;;12.98;5.93;;;;;;;-0.95;100.00;61901.69;5098640;28;20212;-78
2024/01/15 06:36:04;;;;;;;10.13;6.43;;;;;;;-0.88;99.88;61906.84;5108376;28;20249;-78
2024/01/15 06:38:30;;;;;;;8.05;5.45;;;;;;;-0.69;98.22;61930.78;5108616;28;20216;-78
2024/01/15 06:40:59;;;;;;;13.35;6.07;;;;;;;-0.53;96.38;61942.16;5108904;28;20227;-79
2024/01/15 06:43:26;;;;;;;11.63;7.10;;;;;;;-0.39;96.02;61959.53;5109140;28;20235;-79
2024/01/15 06:45:53;;;;;;;14.95;8.23;;;;;;;-0.27;95.43;61966.81;5108433;28;20223;-78
2024/01/15 06:48:19;;;;;;;14.55;9.80;;;;;;;-0.24;94.88;61974.38;5110632;28;20245;-79
2024/01/15 06:50:46;;;;;;;21.95;11.30;;;;;;;-0.21;94.61;61977.97;5113409;28;20227;-78
2024/01/15 06:53:14;;;;;;;19.92;11.32;;;;;;;-0.10;94.89;61986.22;5110701;28;20228;-78
2024/01/15 06:55:41;;;;;;;23.23;11.10;;;;;;;0.05;94.03;62006.09;5108872;28;20223;-77
2024/01/15 06:58:09;;;;;;;23.30;12.63;;;;;;;0.04;91.95;62000.56;5109214;28;20203;-78
2024/01/15 07:00:37;;;;;;;30.48;13.88;;;;;;;0.30;92.77;62027.22;5107897;28;20220;-77
2024/01/15 07:03:05;;;;;;;26.63;14.40;;;;;;;0.44;91.34;62046.06;5108731;28;20239;-78
2024/01/15 07:05:32;;;;;;;33.40;17.35;;;;;;;0.03;90.60;61999.56;5108140;28;20220;-79
2024/01/15 07:07:58;;;;;;;27.92;16.38;;;;;;;-0.17;92.74;61981.53;5108819;28;20489;-78
2024/01/15 07:10:26;;;;;;;34.47;16.95;;;;;;;-0.26;94.18;61972.84;5110074;28;20251;-79
2024/01/15 07:12:53;;;;;;;34.50;15.88;;;;;;;-0.13;93.01;61986.16;5112254;28;20204;-79
2024/01/15 07:15:21;;;;;;;36.40;15.50;;;;;;;-0.25;93.36;61973.34;5112847;28;20223;-78
2024/01/15 07:17:48;;;;;;;28.98;16.05;;;;;;;-0.35;94.46;61958.63;5107854;28;20204;-78
2024/01/15 07:20:15;;;;;;;30.13;17.13;;;;;;;-0.56;96.03;61939.09;5097597;28;20228;-79
2024/01/15 07:22:42;;;;;;;42.80;20.35;;;;;;;-0.65;97.23;61935.41;5105343;28;20231;-78
2024/01/15 07:25:09;;;;;;;100.28;47.70;;;;;;;-0.48;100.00;61947.81;5108847;28;20241;-80
2024/01/15 07:27:36;;;;;;;28.80;15.95;;;;;;;-0.41;100.00;61959.97;5107786;28;20212;-78
2024/01/15 07:30:05;;;;;;;29.88;15.70;;;;;;;-0.39;97.36;61959.00;5106740;28;20230;-79
2024/01/15 07:32:33;;;;;;;29.48;16.52;;;;;;;-0.47;95.99;61953.31;5106863;28;20257;-78
2024/01/15 07:35:00;;;;;;;32.33;17.00;;;;;;;-0.40;97.82;61956.00;5106646;28;20432;-78
2024/01/15 07:37:28;;;;;;;28.85;16.90;;;;;;;-0.12;96.79;61986.66;5110385;28;20232;-77
2024/01/15 07:39:55;;;;;;;51.53;25.17;;;;;;;-0.23;96.54;61975.94;5111807;28;20231;-78
2024/01/15 07:42:22;;;;;;;40.25;21.58;;;;;;;-0.10;97.38;61986.22;5107991;28;20232;-78
2024/01/15 07:44:50;;;;;;;36.60;18.20;;;;;;;0.16;96.12;62015.38;5107606;28;20223;-78
2024/01/15 07:47:18;;;;;;;32.75;17.52;;;;;;;0.26;95.02;62023.09;5107736;28;20208;-78
2024/01/15 07:49:46;;;;;;;34.45;17.67;;;;;;;0.22;96.18;62019.03;5094455;28;20228;-77
2024/01/15 07:52:13;;;;;;;29.77;17.17;;;;;;;0.33;94.80;62032.28;5093247;28;20375;-77
2024/01/15 07:54:40;;;;;;;34.53;17.67;;;;;;;0.47;95.35;62049.66;5107274;28;20223;-78
2024/01/15 07:57:07;;;;;;;31.10;16.35;;;;;;;0.73;95.33;62073.28;5107378;28;20226;-79
2024/01/15 07:59:34;;;;;;;28.48;16.90;;;;;;;0.56;89.83;62056.38;5107087;28;20224;-78
2024/01/15 08:02:01;;;;;;;28.65;17.10;;;;;;;0.34;92.25;62033.31;5106807;28;20208;-77
2024/01/15 08:04:27;;;;;;;67.00;28.02;;;;;;;0.63;91.60;62058.53;5114008;28;20254;-78
2024/01/15 08:06:56;;;;;;;35.63;18.70;;;;;;;0.87;90.62;62088.16;5108980;28;20227;-78
2024/01/15 08:09:22;;;;;;;29.88;17.63;;;;;;;1.00;91.30;62096.47;5107338;28;20245;-78
2024/01/15 08:11:49;;;;;;;32.08;16.38;;;;;;;1.00;91.79;62096.47;5106660;28;20501;-78
2024/01/15 08:14:16;;;;;;;30.30;16.33;;;;;;;0.87;92.87;62088.16;5106462;28;20256;-77
2024/01/15 08:16:43;;;;;;;31.23;16.00;;;;;;;1.02;93.29;62105.53;5106387;28;20211;-77
2024/01/15 08:19:10;;;;;;;30.58;13.43;;;;;;;1.14;87.98;62123.38;5095252;28;20262;-78
2024/01/15 08:21:37;;;;;;;22.13;13.52;;;;;;;1.06;86.60;62107.13;5107454;28;20204;-78
2024/01/15 08:24:06;;;;;;;21.52;12.35;;;;;;;1.09;85.51;62112.72;5106556;28;20247;-78
2024/01/15 08:26:33;;;;;;;21.10;12.35;;;;;;;1.05;84.10;62106.13;5106319;28;20284;-78
2024/01/15 08:29:00;;;;;;;19.92;11.40;;;;;;;0.92;83.27;62095.28;5106918;28;20215;-78
2024/01/15 08:31:27;;;;;;;23.98;12.25;;;;;;;0.42;84.01;62042.03;5113879;28;20208;-78
2024/01/15 08:33:53;;;;;;;32.95;15.90;;;;;;;0.54;85.63;62051.28;5095953;28;20207;-77
2024/01/15 08:36:20;;;;;;;22.20;12.55;;;;;;;0.72;85.60;62067.25;5106058;28;20204;-78
2024/01/15 08:38:47;;;;;;;20.10;11.73;;;;;;;0.76;84.60;62073.88;5106765;28;20235;-78
2024/01/15 08:41:16;;;;;;;20.65;11.93;;;;;;;0.68;83.77;62068.69;5107016;28;20224;-77
2024/01/15 08:43:42;;;;;;;25.52;12.32;;;;;;;0.85;83.96;62086.09;5106819;28;20236;-78
2024/01/15 08:46:09;;;;;;;30.15;12.55;;;;;;;0.99;82.46;62099.94;5105861;28;20224;-77
2024/01/15 08:48:36;;;;;;;24.00;13.57;;;;;;;1.04;81.65;62107.59;5105773;28;20207;-77
2024/01/15 08:51:03;;;;;;;25.75;12.65;;;;;;;1.17;80.31;62118.44;5106175;28;20406;-77
2024/01/15 08:53:30;;;;;;;25.58;12.85;;;;;;;1.23;80.24;62124.06;5105647;28;20204;-77
2024/01/15 08:55:57;;;;;;;22.92;12.95;;;;;;;1.29;79.86;62130.22;5105879;28;20552;-77
2024/01/15 08:58:25;;;;;;;20.77;12.07;;;;;;;1.24;79.48;62125.09;5105965;28;20203;-77
2024/01/15 09:00:52;;;;;;;22.42;14.40;;;;;;;1.25;79.86;62123.59;5112409;28;20284;-77
2024/01/15 09:03:19;;;;;;;24.08;14.73;;;;;;;1.04;81.85;62107.59;5110089;28;20263;-76
2024/01/15 09:05:46;;;;;;;23.98;15.13;;;;;;;1.15;82.16;62116.88;5105283;28;20524;-78
2024/01/15 09:08:13;;;;;;;27.02;16.60;;;;;;;1.22;81.23;62123.56;5105463;28;20207;-77
2024/01/15 09:10:40;;;;;;;27.27;14.35;;;;;;;1.40;79.91;62142.00;5106162;28;20224;-77
2024/01/15 09:13:08;;;;;;;22.35;12.82;;;;;;;1.25;78.71;62131.13;5100740;28;20383;-77
2024/01/15 09:15:36;;;;;;;25.08;13.63;;;;;;;1.29;78.89;62130.22;5096956;28;20230;-78
2024/01/15 09:18:02;;;;;;;22.10;12.57;;;;;;;1.43;79.44;62142.59;5101505;28;20502;-77
2024/01/15 09:20:29;;;;;;;27.85;14.52;;;;;;;1.59;78.84;62159.00;5097030;28;20239;-77
2024/01/15 09:22:55;;;;;;;22.38;13.35;;;;;;;1.79;77.75;62182.06;5104397;28;20508;-77
2024/01/15 09:25:22;;;;;;;22.65;13.10;;;;;;;1.82;77.30;62184.59;5104951;28;20224;-78
2024/01/15 09:27:49;;;;;;;20.23;11.60;;;;;;;1.94;74.70;62199.97;5104541;28;20305;-77
2024/01/15 09:30:17;;;;;;;19.05;11.00;;;;;;;1.97;72.65;62200.00;5111924;28;20292;-78
2024/01/15 09:32:45;;;;;;;24.17;11.88;;;;;;;2.02;70.72;62203.16;5106755;28;20234;-77
2024/01/15 09:35:12;;;;;;;24.80;11.55;;;;;;;1.84;72.06;62191.69;5104695;28;20227;-78
2024/01/15 09:37:40;;;;;;;20.98;12.75;;;;;;;1.60;74.28;62157.00;5104292;28;20207;-77
2024/01/15 09:40:08;;;;;;;34.03;14.68;;;;;;;1.16;79.29;62120.41;5104281;28;20228;-77
2024/01/15 09:42:35;;;;;;;35.50;16.58;;;;;;;0.90;82.70;62093.22;5107754;28;20235;-77
2024/01/15 09:45:03;;;;;;;29.58;17.13;;;;;;;1.08;82.46;62112.22;5109005;28;20392;-77
2024/01/15 09:47:30;;;;;;;29.75;17.17;;;;;;;1.14;81.73;62113.34;5108302;28;20205;-78
2024/01/15 09:49:58;;;;;;;24.30;14.13;;;;;;;0.94;81.47;62095.34;5108868;28;20232;-77
2024/01/15 09:52:25;;;;;;;31.67;15.38;;;;;;;0.83;81.71;62081.03;5108665;28;20212;-77
2024/01/15 09:54:52;;;;;;;24.00;13.52;;;;;;;0.84;82.68;62085.09;5114301;28;20239;-78
2024/01/15 09:57:19;;;;;;;60.00;28.02;;;;;;;0.83;82.22;62083.53;5110546;28;20204;-77
2024/01/15 09:59:47;;;;;;;27.52;16.27;;;;;;;0.91;81.37;62091.75;5108540;28;20249;-77
2024/01/15 10:02:15;;;;;;;29.95;16.52;;;;;;;1.00;81.19;62098.47;5109169;28;20211;-77
2024/01/15 10:04:43;;;;;;;36.40;18.40;;;;;;;0.93;80.63;62094.31;5108669;28;20252;-77
2024/01/15 10:07:11;;;;;;;35.55;18.23;;;;;;;0.95;81.22;62095.84;5109803;28;20203;-77
2024/01/15 10:09:38;;;;;;;38.83;17.90;;;;;;;1.00;82.01;62106.00;5109135;28;20230;-78
2024/01/15 10:12:06;;;;;;;36.92;19.80;;;;;;;1.26;83.06;62124.63;5108739;28;20200;-77
2024/01/15 10:14:33;;;;;;;39.17;19.73;;;;;;;1.54;80.18;62158.88;5108953;28;20224;-78
2024/01/15 10:17:00;;;;;;;45.47;23.98;;;;;;;1.51;79.00;62150.81;5109939;28;20249;-77
2024/01/15 10:19:27;;;;;;;50.97;29.83;;;;;;;1.22;81.99;62123.03;5117112;28;20220;-76
2024/01/15 10:21:54;;;;;;;51.92;29.58;;;;;;;1.41;83.02;62143.06;5108652;28;20207;-77
2024/01/15 10:24:23;;;;;;;50.10;29.02;;;;;;;1.60;82.76;62165.06;5109102;28;20239;-78
2024/01/15 10:26:51;;;;;;;51.28;26.58;;;;;;;1.96;80.59;62198.97;5109067;28;20258;-77
2024/01/15 10:29:17;;;;;;;55.60;28.83;;;;;;;2.16;78.50;62215.00;5108542;28;20231;-76
2024/01/15 10:31:45;;;;;;;68.72;30.50;;;;;;;2.33;75.60;62234.97;5108478;28;20209;-77
2024/01/15 10:34:15;;;;;;;55.63;27.50;;;;;;;1.84;76.67;62184.66;5097469;28;20443;-78
2024/01/15 10:36:41;;;;;;;56.80;30.80;;;;;;;1.83;77.81;62186.16;5108512;28;20207;-77
2024/01/15 10:39:08;;;;;;;57.88;31.85;;;;;;;1.56;81.31;62158.44;5104097;28;20209;-75
2024/01/15 10:41:37;;;;;;;59.28;33.03;;;;;;;2.05;81.46;62205.72;5099990;28;20203;-77
2024/01/15 10:44:04;;;;;;;75.53;35.38;;;;;;;2.02;77.13;62205.66;5109279;28;20302;-77
2024/01/15 10:46:31;;;;;;;60.95;31.70;;;;;;;1.96;78.28;62198.97;5110060;28;20200;-76
2024/01/15 10:48:58;;;;;;;55.97;30.60;;;;;;;2.09;79.54;62214.84;5114749;28;20204;-77
2024/01/15 10:51:25;;;;;;;51.38;31.80;;;;;;;2.40;77.75;62244.16;5106695;28;20200;-76
2024/01/15 10:53:53;;;;;;;64.40;32.40;;;;;;;2.33;76.56;62236.97;5106082;28;20368;-76
2024/01/15 10:56:20;;;;;;;62.65;32.92;;;;;;;2.38;76.00;62240.09;5108160;28;20208;-76
2024/01/15 10:58:48;;;;;;;57.65;32.13;;;;;;;2.57;74.80;62261.63;5108229;28;20208;-75
2024/01/15 11:01:15;;;;;;;62.05;31.10;;;;;;;2.76;73.41;62278.63;5108291;28;20230;-76
2024/01/15 11:03:42;;;;;;;55.80;29.27;;;;;;;3.19;71.64;62325.34;5107984;28;20540;-76
2024/01/15 11:06:17;;;;;;;58.80;32.35;;;;;;;3.26;69.96;62330.00;5108405;28;20227;-76
2024/01/15 11:08:45;;;;;;;57.33;32.47;;;;;;;3.23;70.45;62329.44;5107952;28;20449;-76
2024/01/15 11:11:12;;;;;;;68.72;35.72;;;;;;;3.52;70.02;62359.25;5112966;28;20228;-76
2024/01/15 11:13:43;;;;;;;74.70;36.22;;;;;;;3.52;68.50;62356.75;5110209;28;20254;-76
2024/01/15 11:16:12;;;;;;;66.32;38.15;;;;;;;3.74;69.06;62381.38;5107420;28;20223;-77
2024/01/15 11:18:42;;;;;;;69.53;36.75;;;;;;;3.18;68.36;62321.28;5107637;28;20457;-77